Colmenar Viejo, Spain
Current Conditions -  °F | °C
As of 2:00 AM on Saturday 20 Dec 2014 (Local Time) from LEMD Reporting Station
Light Fog Light Fog  
Wind Chill: 34°   Ceiling: Unl
Heat Index: 34°   Visibility: 1.8mi
Dew Point: 34°   Wind: 3mph
Humidity: 100%   Direction: 350°N
Pressure: 30.48"   Gusts: NA
Location:  40.66°N, 3.77°W
Report Text: LEMD 200100Z 35003KT 3000 0300NE BCFG FEW003 01/01 Q1032 NOSIG
Loading
Personal Weather Stations






























Interactive Weather Map New forecast layout! Learn more

10-Day Weather Forecast

Advertisements
Track Severe Weather on mobile